Time;durP1;ratioP1;P1;durP2;ratioP2;P2;SDS_P1;SDS_P2;PMS_P1;PMS_P2;Temp;Humidity;BMP_temperature;BMP_pressure;BME280_temperature;BME280_humidity;BME280_pressure;Samples;Min_cycle;Max_cycle;Signal;HPM_P1;HPM_P2
2022/04/03 00:02:03;;;;;;;16.15;6.45;;;;;;;;;;5073833;28;20352;-89
2022/04/03 00:04:29;;;;;;;21.52;7.57;;;;;;;;;;5086332;28;20492;-89
2022/04/03 00:06:57;;;;;;;22.10;7.85;;;;;;;;;;5070817;28;20190;-89
2022/04/03 00:09:24;;;;;;;19.88;8.32;;;;;;;;;;5082885;28;20154;-88
2022/04/03 00:12:17;;;;;;;17.52;8.23;;;;;;;;;;5070068;28;20058;-88
2022/04/03 00:14:43;;;;;;;23.10;8.27;;;;;;;;;;5071325;28;20031;-88
2022/04/03 00:17:11;;;;;;;27.20;10.35;;;;;;;;;;5065321;28;20025;-88
2022/04/03 00:19:38;;;;;;;15.98;8.65;;;;;;;;;;5062603;28;20510;-90
2022/04/03 00:22:19;;;;;;;26.77;10.25;;;;;;;;;;5059345;28;20029;-89
2022/04/03 00:24:46;;;;;;;24.42;9.13;;;;;;;;;;5082870;28;20048;-89
2022/04/03 00:30:17;;;;;;;26.58;10.30;;;;;;;;;;5077607;28;20028;-90
2022/04/03 00:32:43;;;;;;;27.30;9.48;;;;;;;;;;5069731;28;20193;-89
2022/04/03 00:35:27;;;;;;;20.27;8.45;;;;;;;;;;5069686;28;20503;-88
2022/04/03 00:37:53;;;;;;;18.67;8.45;;;;;;;;;;5060579;28;20483;-88
2022/04/03 00:40:23;;;;;;;29.00;9.73;;;;;;;;;;5059434;28;20501;-89
2022/04/03 00:42:50;;;;;;;23.13;9.07;;;;;;;;;;5064072;28;20478;-89
2022/04/03 00:45:19;;;;;;;24.83;10.27;;;;;;;;;;5067339;28;20064;-88
2022/04/03 00:47:48;;;;;;;20.65;8.02;;;;;;;;;;5084751;28;20518;-89
2022/04/03 00:50:16;;;;;;;22.08;7.93;;;;;;;;;;5066358;28;20085;-90
2022/04/03 00:52:46;;;;;;;15.20;7.00;;;;;;;;;;5065335;28;20033;-90
2022/04/03 00:55:14;;;;;;;20.23;7.47;;;;;;;;;;5067279;28;20380;-89
2022/04/03 01:00:48;;;;;;;16.00;6.80;;;;;;;;;;5058947;28;20027;-89
2022/04/03 01:03:14;;;;;;;18.15;6.85;;;;;;;;;;5058357;28;20446;-89
2022/04/03 01:05:47;;;;;;;21.33;7.28;;;;;;;;;;5064808;28;20036;-89
2022/04/03 01:08:14;;;;;;;11.45;6.35;;;;;;;;;;5042249;28;20043;-89
2022/04/03 01:10:45;;;;;;;16.73;6.35;;;;;;;;;;5049540;28;20037;-88
2022/04/03 01:13:11;;;;;;;12.50;5.32;;;;;;;;;;5064878;28;20477;-89
2022/04/03 01:15:43;;;;;;;20.75;6.47;;;;;;;;;;5055730;28;20036;-88
2022/04/03 01:18:09;;;;;;;17.95;5.60;;;;;;;;;;5046698;28;20491;-88
2022/04/03 01:20:36;;;;;;;18.33;5.22;;;;;;;;;;5051339;28;20033;-88
2022/04/03 01:23:02;;;;;;;20.65;5.70;;;;;;;;;;5047926;28;20445;-88
2022/04/03 01:25:31;;;;;;;18.38;5.85;;;;;;;;;;5065984;28;20368;-88
2022/04/03 01:28:02;;;;;;;16.67;6.03;;;;;;;;;;5059804;28;20480;-89
2022/04/03 01:30:29;;;;;;;21.25;6.63;;;;;;;;;;5067532;28;20078;-88
2022/04/03 01:32:56;;;;;;;13.05;5.55;;;;;;;;;;5067610;28;20039;-88
2022/04/03 01:35:23;;;;;;;13.48;5.10;;;;;;;;;;5041229;28;20032;-88
2022/04/03 01:37:49;;;;;;;12.57;5.55;;;;;;;;;;5038198;28;20101;-88
2022/04/03 01:40:16;;;;;;;15.85;5.82;;;;;;;;;;5043218;28;20044;-88
2022/04/03 01:42:50;;;;;;;16.13;5.13;;;;;;;;;;5055873;28;20375;-88
2022/04/03 01:45:16;;;;;;;12.57;4.60;;;;;;;;;;5048436;28;20464;-88
2022/04/03 01:47:45;;;;;;;14.38;4.88;;;;;;;;;;5051858;28;20036;-88
2022/04/03 01:50:11;;;;;;;13.77;4.95;;;;;;;;;;5048245;28;20399;-87
2022/04/03 01:52:37;;;;;;;13.75;5.15;;;;;;;;;;5049435;28;20131;-88
2022/04/03 01:55:04;;;;;;;14.60;4.50;;;;;;;;;;5078770;28;20523;-88
2022/04/03 01:57:31;;;;;;;14.57;4.80;;;;;;;;;;5068348;28;20044;-87
2022/04/03 01:59:57;;;;;;;11.18;4.93;;;;;;;;;;5059915;28;20035;-90
2022/04/03 02:02:23;;;;;;;11.95;4.90;;;;;;;;;;5063866;28;20039;-91
2022/04/03 02:04:50;;;;;;;11.07;4.15;;;;;;;;;;5059731;28;20157;-90
2022/04/03 02:07:16;;;;;;;13.55;4.35;;;;;;;;;;5067214;28;20028;-90
2022/04/03 02:10:12;;;;;;;10.30;3.45;;;;;;;;;;5072728;28;20471;-90
2022/04/03 02:12:40;;;;;;;9.68;3.95;;;;;;;;;;5072972;28;20097;-91
2022/04/03 02:15:08;;;;;;;11.38;3.35;;;;;;;;;;5077411;28;20032;-90
2022/04/03 02:17:34;;;;;;;13.48;3.97;;;;;;;;;;5065614;28;20066;-91
2022/04/03 02:20:12;;;;;;;10.43;3.35;;;;;;;;;;5076638;28;20036;-88
2022/04/03 02:22:38;;;;;;;11.95;3.50;;;;;;;;;;5075765;28;20446;-89
2022/04/03 02:25:19;;;;;;;13.65;4.03;;;;;;;;;;5069674;28;20025;-87
2022/04/03 02:27:49;;;;;;;11.68;4.45;;;;;;;;;;5069894;28;20048;-88
2022/04/03 02:30:15;;;;;;;18.33;4.90;;;;;;;;;;5074201;28;20039;-88
2022/04/03 02:32:42;;;;;;;10.40;4.22;;;;;;;;;;5069589;28;20036;-88
2022/04/03 02:35:09;;;;;;;13.60;4.97;;;;;;;;;;5056529;28;20689;-88
2022/04/03 02:37:36;;;;;;;14.05;5.30;;;;;;;;;;5070922;28;20697;-88
2022/04/03 02:40:05;;;;;;;20.60;5.82;;;;;;;;;;5074090;28;20040;-88
2022/04/03 02:42:32;;;;;;;14.45;5.70;;;;;;;;;;5070981;28;20188;-89
2022/04/03 02:45:04;;;;;;;16.35;6.43;;;;;;;;;;5071825;28;20047;-89
2022/04/03 02:47:30;;;;;;;21.35;6.55;;;;;;;;;;5074027;28;20081;-87
2022/04/03 02:49:57;;;;;;;23.20;9.70;;;;;;;;;;5063884;28;20396;-89
2022/04/03 02:52:23;;;;;;;24.08;11.57;;;;;;;;;;5060893;28;20028;-87
2022/04/03 02:54:52;;;;;;;25.48;12.32;;;;;;;;;;5091350;28;20051;-90
2022/04/03 02:57:19;;;;;;;32.45;13.32;;;;;;;;;;5092050;28;20062;-89
2022/04/03 02:59:46;;;;;;;29.23;13.48;;;;;;;;;;5069945;28;20029;-91
2022/04/03 03:02:13;;;;;;;35.60;14.57;;;;;;;;;;5064695;28;21855;-89
2022/04/03 03:04:53;;;;;;;35.53;15.60;;;;;;;;;;5062429;28;20032;-90
2022/04/03 03:07:21;;;;;;;39.13;16.35;;;;;;;;;;5086629;28;20036;-88
2022/04/03 03:09:47;;;;;;;36.35;15.52;;;;;;;;;;5070784;28;20036;-88
2022/04/03 03:12:14;;;;;;;37.38;15.52;;;;;;;;;;5062873;28;20056;-89
2022/04/03 03:14:41;;;;;;;36.88;14.63;;;;;;;;;;5070732;28;20117;-87
2022/04/03 03:17:07;;;;;;;40.88;15.68;;;;;;;;;;5075064;28;20501;-88
2022/04/03 03:19:34;;;;;;;31.92;15.43;;;;;;;;;;5068192;28;20035;-88
2022/04/03 03:22:00;;;;;;;33.75;14.00;;;;;;;;;;5069920;28;20044;-88
2022/04/03 03:24:26;;;;;;;36.08;15.40;;;;;;;;;;5089072;28;20070;-88
2022/04/03 03:26:53;;;;;;;37.50;15.57;;;;;;;;;;5073785;28;20032;-89
2022/04/03 03:29:19;;;;;;;36.08;14.80;;;;;;;;;;5093862;28;20111;-89
2022/04/03 03:31:47;;;;;;;38.92;15.20;;;;;;;;;;5076329;28;20032;-89
2022/04/03 03:34:13;;;;;;;37.35;16.13;;;;;;;;;;5061455;28;20102;-89
2022/04/03 03:37:01;;;;;;;33.35;15.68;;;;;;;;;;5066558;28;20036;-88
2022/04/03 03:39:28;;;;;;;34.10;15.43;;;;;;;;;;5070986;28;20047;-89
2022/04/03 03:42:18;;;;;;;35.63;15.25;;;;;;;;;;5069706;28;20033;-89
2022/04/03 03:44:44;;;;;;;37.08;14.50;;;;;;;;;;5069514;28;20498;-90
2022/04/03 03:47:22;;;;;;;28.80;14.73;;;;;;;;;;5091580;28;20031;-89
2022/04/03 03:49:49;;;;;;;35.55;14.63;;;;;;;;;;5060194;28;20036;-88
2022/04/03 03:52:17;;;;;;;30.15;13.48;;;;;;;;;;5062304;28;20803;-89
2022/04/03 03:55:09;;;;;;;33.08;14.60;;;;;;;;;;5068916;28;20061;-89
2022/04/03 03:57:36;;;;;;;33.83;15.15;;;;;;;;;;5070955;28;20029;-90
2022/04/03 04:00:10;;;;;;;32.90;14.45;;;;;;;;;;5068819;28;20035;-88
2022/04/03 04:02:37;;;;;;;34.30;15.02;;;;;;;;;;5068735;28;20039;-91
2022/04/03 04:05:05;;;;;;;32.63;13.82;;;;;;;;;;5064658;28;20120;-89
2022/04/03 04:07:42;;;;;;;30.88;13.38;;;;;;;;;;5070533;28;20783;-87
2022/04/03 04:10:14;;;;;;;27.60;12.73;;;;;;;;;;5068773;28;20036;-88
2022/04/03 04:12:41;;;;;;;25.25;11.93;;;;;;;;;;5069036;28;20032;-89
2022/04/03 04:15:08;;;;;;;30.23;12.55;;;;;;;;;;4712026;28;10000247;-91
2022/04/03 04:17:49;;;;;;;36.42;13.23;;;;;;;;;;5068519;28;20484;-89
2022/04/03 04:20:16;;;;;;;30.48;14.13;;;;;;;;;;5072351;28;20386;-89
2022/04/03 04:22:55;;;;;;;32.90;13.80;;;;;;;;;;5065193;28;20392;-88
2022/04/03 04:25:21;;;;;;;28.70;13.73;;;;;;;;;;5075286;28;20040;-88
2022/04/03 04:27:50;;;;;;;29.40;13.82;;;;;;;;;;5070065;28;20505;-88
2022/04/03 04:30:19;;;;;;;33.75;13.80;;;;;;;;;;5089567;28;20501;-89
2022/04/03 04:32:48;;;;;;;29.58;13.65;;;;;;;;;;5071272;28;20036;-91
2022/04/03 04:35:14;;;;;;;33.80;13.77;;;;;;;;;;5069013;28;20426;-89
2022/04/03 04:37:54;;;;;;;31.10;13.60;;;;;;;;;;5070953;28;20067;-89
2022/04/03 04:40:27;;;;;;;38.58;12.73;;;;;;;;;;5062498;28;20403;-90
2022/04/03 04:42:55;;;;;;;32.90;12.32;;;;;;;;;;5071117;28;20074;-89
2022/04/03 04:45:22;;;;;;;27.17;12.43;;;;;;;;;;5066729;28;20066;-89
2022/04/03 04:48:00;;;;;;;28.65;11.70;;;;;;;;;;4714493;28;10000290;-88
2022/04/03 04:50:30;;;;;;;26.05;12.48;;;;;;;;;;5074871;28;20036;-89
2022/04/03 04:53:07;;;;;;;30.25;13.35;;;;;;;;;;5064991;28;20478;-90
2022/04/03 04:58:36;;;;;;;29.80;12.20;;;;;;;;;;5078173;28;20082;-92
2022/04/03 05:01:12;;;;;;;34.95;11.68;;;;;;;;;;5071671;28;20056;-91
2022/04/03 05:03:38;;;;;;;30.55;11.43;;;;;;;;;;5066410;28;20033;-88
2022/04/03 05:06:15;;;;;;;29.75;10.85;;;;;;;;;;5066501;28;20032;-89
2022/04/03 05:08:42;;;;;;;26.10;11.40;;;;;;;;;;5065893;28;20031;-89
2022/04/03 05:11:08;;;;;;;32.78;12.18;;;;;;;;;;5071847;28;20032;-89
2022/04/03 05:13:39;;;;;;;28.23;11.57;;;;;;;;;;5072230;28;20439;-90
2022/04/03 05:16:06;;;;;;;31.75;12.98;;;;;;;;;;5062180;28;20068;-88
2022/04/03 05:18:40;;;;;;;32.67;12.45;;;;;;;;;;5071513;28;20040;-91
2022/04/03 05:21:09;;;;;;;33.85;12.52;;;;;;;;;;5073771;28;20089;-89
2022/04/03 05:23:54;;;;;;;32.90;12.05;;;;;;;;;;5059661;28;20036;-89
2022/04/03 05:26:20;;;;;;;25.17;12.32;;;;;;;;;;5065584;28;20130;-88
2022/04/03 05:28:49;;;;;;;30.70;12.65;;;;;;;;;;5079155;28;20029;-88
2022/04/03 05:31:15;;;;;;;32.15;12.50;;;;;;;;;;5074987;28;20036;-88
2022/04/03 05:33:56;;;;;;;27.33;13.55;;;;;;;;;;5079123;28;20035;-90
2022/04/03 05:36:23;;;;;;;26.50;11.60;;;;;;;;;;5093420;28;20032;-88
2022/04/03 05:38:54;;;;;;;28.48;12.07;;;;;;;;;;5075105;28;20024;-89
2022/04/03 05:41:20;;;;;;;29.85;12.45;;;;;;;;;;5067699;28;20032;-89
2022/04/03 05:43:49;;;;;;;30.52;12.60;;;;;;;;;;5073633;28;20187;-89
2022/04/03 05:46:15;;;;;;;25.75;11.45;;;;;;;;;;5070470;28;20076;-89
2022/04/03 05:48:43;;;;;;;29.27;11.95;;;;;;;;;;5079530;28;20130;-89
2022/04/03 05:51:11;;;;;;;32.05;11.95;;;;;;;;;;5072450;28;20044;-89
2022/04/03 05:53:38;;;;;;;30.92;13.60;;;;;;;;;;5078267;28;20035;-90
2022/04/03 05:56:27;;;;;;;33.75;14.70;;;;;;;;;;5069029;28;20050;-90
2022/04/03 05:58:54;;;;;;;35.25;14.52;;;;;;;;;;5069687;28;20109;-89
2022/04/03 06:01:25;;;;;;;22.90;10.70;;;;;;;;;;4726196;28;9999834;-88
2022/04/03 06:03:51;;;;;;;33.28;10.43;;;;;;;;;;5070647;28;20491;-88
2022/04/03 06:06:18;;;;;;;21.25;9.10;;;;;;;;;;5069992;28;20746;-89
2022/04/03 06:08:44;;;;;;;23.80;8.98;;;;;;;;;;5073621;28;20038;-89
2022/04/03 06:11:18;;;;;;;23.02;7.63;;;;;;;;;;5077857;28;20040;-90
2022/04/03 06:13:44;;;;;;;29.98;8.52;;;;;;;;;;5096032;28;20525;-88
2022/04/03 06:19:12;;;;;;;28.65;9.80;;;;;;;;;;5095576;28;20482;-90
2022/04/03 06:24:49;;;;;;;32.28;10.63;;;;;;;;;;5093778;28;20027;-89
2022/04/03 06:27:15;;;;;;;29.20;11.20;;;;;;;;;;5075257;28;20036;-91
2022/04/03 06:30:01;;;;;;;24.85;10.70;;;;;;;;;;5078227;28;20028;-89
2022/04/03 06:32:29;;;;;;;24.13;9.30;;;;;;;;;;5077643;28;20060;-90
2022/04/03 06:35:09;;;;;;;26.40;9.80;;;;;;;;;;5077770;28;20479;-89
2022/04/03 06:37:36;;;;;;;26.05;9.88;;;;;;;;;;5076406;28;20039;-88
2022/04/03 06:40:13;;;;;;;26.95;10.60;;;;;;;;;;5068370;28;20032;-91
2022/04/03 06:42:40;;;;;;;22.80;11.75;;;;;;;;;;5089102;28;20048;-89
2022/04/03 06:45:18;;;;;;;29.35;11.93;;;;;;;;;;5095701;28;20111;-88
2022/04/03 06:47:45;;;;;;;37.53;12.77;;;;;;;;;;5071226;28;20376;-88
2022/04/03 06:50:25;;;;;;;26.90;11.23;;;;;;;;;;5069085;28;20555;-89
2022/04/03 06:52:51;;;;;;;31.98;11.73;;;;;;;;;;5068009;28;20058;-89
2022/04/03 06:55:18;;;;;;;37.67;13.63;;;;;;;;;;5068383;28;20109;-91
2022/04/03 06:57:44;;;;;;;34.67;13.55;;;;;;;;;;5058665;28;20075;-88
2022/04/03 07:00:13;;;;;;;31.05;12.50;;;;;;;;;;5051285;28;20036;-89
2022/04/03 07:02:39;;;;;;;40.00;14.88;;;;;;;;;;5077222;28;20338;-90
2022/04/03 07:05:06;;;;;;;33.95;12.68;;;;;;;;;;5064803;28;20033;-88
2022/04/03 07:07:32;;;;;;;44.58;13.52;;;;;;;;;;5075255;28;20438;-89
2022/04/03 07:10:04;;;;;;;42.72;14.25;;;;;;;;;;5055009;28;20466;-89
2022/04/03 07:12:30;;;;;;;44.05;13.85;;;;;;;;;;5054224;28;20046;-88
2022/04/03 07:15:08;;;;;;;36.40;12.90;;;;;;;;;;5042816;28;20063;-88
2022/04/03 07:17:35;;;;;;;36.88;12.57;;;;;;;;;;5056391;28;20054;-88
2022/04/03 07:20:23;;;;;;;42.03;13.70;;;;;;;;;;5066872;28;20036;-89
2022/04/03 07:22:50;;;;;;;36.10;13.75;;;;;;;;;;5066665;28;20037;-90
2022/04/03 07:25:29;;;;;;;44.97;15.13;;;;;;;;;;5068491;28;20044;-89
2022/04/03 07:27:55;;;;;;;44.08;14.25;;;;;;;;;;5064487;28;20503;-88
2022/04/03 07:30:25;;;;;;;45.95;15.93;;;;;;;;;;5075137;28;20127;-88
2022/04/03 07:32:51;;;;;;;43.17;15.27;;;;;;;;;;5056670;28;20048;-89
2022/04/03 07:35:20;;;;;;;52.45;20.10;;;;;;;;;;5044916;28;20040;-89
2022/04/03 07:37:46;;;;;;;52.55;19.95;;;;;;;;;;5046918;28;20029;-89
2022/04/03 07:40:23;;;;;;;63.15;19.52;;;;;;;;;;5068353;28;20502;-91
2022/04/03 07:42:51;;;;;;;54.95;19.38;;;;;;;;;;5053385;28;20522;-89
2022/04/03 07:45:25;;;;;;;59.90;19.65;;;;;;;;;;5074834;28;20058;-89
2022/04/03 07:47:52;;;;;;;51.97;18.45;;;;;;;;;;5088803;28;20050;-89
2022/04/03 07:50:19;;;;;;;55.75;19.35;;;;;;;;;;5084580;28;20112;-90
2022/04/03 07:52:49;;;;;;;52.95;17.80;;;;;;;;;;5050832;28;20032;-88
2022/04/03 07:55:16;;;;;;;48.13;16.98;;;;;;;;;;5065470;28;20048;-88
2022/04/03 07:57:45;;;;;;;46.72;18.45;;;;;;;;;;5068410;28;20047;-88
2022/04/03 08:00:12;;;;;;;61.05;19.42;;;;;;;;;;5073557;28;20039;-89
2022/04/03 08:02:39;;;;;;;48.92;17.55;;;;;;;;;;5065393;28;20043;-88
2022/04/03 08:05:09;;;;;;;34.33;15.13;;;;;;;;;;5065649;28;20547;-90
2022/04/03 08:07:36;;;;;;;34.88;14.32;;;;;;;;;;5068121;28;20082;-89
2022/04/03 08:10:14;;;;;;;35.28;14.73;;;;;;;;;;5073930;28;20067;-88
2022/04/03 08:12:42;;;;;;;35.88;15.35;;;;;;;;;;5088653;28;20174;-88
2022/04/03 08:15:10;;;;;;;44.88;16.17;;;;;;;;;;5066486;28;20435;-88
2022/04/03 08:17:40;;;;;;;46.00;16.45;;;;;;;;;;5067596;28;20487;-89
2022/04/03 08:20:21;;;;;;;45.67;18.08;;;;;;;;;;5074362;28;20032;-90
2022/04/03 08:22:48;;;;;;;39.42;17.67;;;;;;;;;;5072550;28;20387;-88
2022/04/03 08:25:15;;;;;;;39.97;18.08;;;;;;;;;;5060379;28;20036;-87
2022/04/03 08:27:42;;;;;;;41.28;17.08;;;;;;;;;;5074219;28;20469;-89
2022/04/03 08:30:30;;;;;;;31.52;15.63;;;;;;;;;;5071891;28;20028;-89
2022/04/03 08:32:57;;;;;;;37.30;16.25;;;;;;;;;;5073470;28;20055;-88
2022/04/03 08:35:27;;;;;;;36.75;16.38;;;;;;;;;;5060382;28;20149;-91
2022/04/03 08:38:18;;;;;;;37.00;15.35;;;;;;;;;;5073883;28;20486;-88
2022/04/03 08:40:52;;;;;;;33.97;15.88;;;;;;;;;;5086387;28;20047;-91
2022/04/03 08:43:19;;;;;;;32.38;14.30;;;;;;;;;;5063506;28;20036;-89
2022/04/03 08:45:49;;;;;;;31.52;14.35;;;;;;;;;;5062879;28;20037;-90
2022/04/03 08:48:16;;;;;;;33.25;14.73;;;;;;;;;;5076107;28;20169;-89
2022/04/03 08:50:48;;;;;;;39.47;16.23;;;;;;;;;;5067454;28;20177;-88
2022/04/03 08:53:14;;;;;;;31.08;15.23;;;;;;;;;;5076054;28;20032;-92
2022/04/03 08:55:40;;;;;;;36.28;14.63;;;;;;;;;;5050439;28;20056;-90
2022/04/03 09:04:00;;;;;;;23.25;10.98;;;;;;;;;;5054422;28;20032;-91
2022/04/03 09:12:30;;;;;;;29.15;11.55;;;;;;;;;;5070147;28;20059;-90
2022/04/03 09:14:57;;;;;;;31.17;11.30;;;;;;;;;;5041480;28;20025;-89
2022/04/03 09:17:49;;;;;;;29.77;11.60;;;;;;;;;;5036273;28;20119;-89
2022/04/03 09:20:40;;;;;;;29.80;12.45;;;;;;;;;;5045723;28;20045;-88
2022/04/03 09:23:11;;;;;;;27.58;10.30;;;;;;;;;;5044181;28;20043;-89
2022/04/03 09:25:47;;;;;;;26.63;10.60;;;;;;;;;;5052748;28;20040;-88
2022/04/03 09:28:14;;;;;;;28.55;9.55;;;;;;;;;;5047753;28;20491;-88
2022/04/03 09:30:42;;;;;;;27.73;9.20;;;;;;;;;;5059698;28;20037;-88
2022/04/03 09:33:15;;;;;;;22.83;9.13;;;;;;;;;;5045478;28;20045;-87
2022/04/03 09:36:01;;;;;;;27.20;9.60;;;;;;;;;;5044911;28;20799;-89
2022/04/03 09:44:24;;;;;;;24.55;9.43;;;;;;;;;;5070824;28;20032;-88
2022/04/03 09:50:09;;;;;;;31.50;10.52;;;;;;;;;;5062940;28;20051;-92
2022/04/03 09:52:35;;;;;;;32.33;8.50;;;;;;;;;;5056853;28;20032;-89
2022/04/03 09:55:02;;;;;;;32.08;10.80;;;;;;;;;;5051573;28;20518;-88
2022/04/03 09:57:28;;;;;;;27.48;9.35;;;;;;;;;;5076845;28;20086;-90
2022/04/03 09:59:56;;;;;;;24.42;9.23;;;;;;;;;;5064750;28;20135;-88
2022/04/03 10:02:24;;;;;;;33.67;9.27;;;;;;;;;;5067655;28;20846;-89
2022/04/03 10:04:59;;;;;;;36.15;8.82;;;;;;;;;;5071330;28;20029;-89
2022/04/03 10:07:25;;;;;;;29.38;8.88;;;;;;;;;;5072515;28;20502;-88
2022/04/03 10:10:21;;;;;;;28.27;9.77;;;;;;;;;;5067983;28;20049;-88
2022/04/03 10:12:47;;;;;;;26.90;9.38;;;;;;;;;;5071728;28;20119;-90
2022/04/03 10:15:44;;;;;;;28.90;9.18;;;;;;;;;;5075922;28;20032;-90
2022/04/03 10:24:42;;;;;;;20.77;6.82;;;;;;;;;;4976786;28;20023;-91
2022/04/03 10:27:16;;;;;;;25.10;7.15;;;;;;;;;;5059055;28;20025;-90
2022/04/03 10:29:44;;;;;;;25.48;7.38;;;;;;;;;;5073035;28;20032;-91
2022/04/03 10:32:21;;;;;;;20.70;7.20;;;;;;;;;;5069241;28;20032;-90
2022/04/03 10:34:49;;;;;;;28.75;7.38;;;;;;;;;;5072827;28;20083;-91
2022/04/03 11:11:39;;;;;;;51.17;20.42;;;;;;;;;;5109365;28;20062;-90
2022/04/03 11:14:31;;;;;;;28.80;6.95;;;;;;;;;;5106869;27;20413;-92
2022/04/03 11:16:57;;;;;;;21.00;5.07;;;;;;;;;;5107115;28;20387;-92
2022/04/03 11:19:53;;;;;;;22.40;5.75;;;;;;;;;;5109416;27;20028;-92
2022/04/03 11:22:20;;;;;;;22.30;8.85;;;;;;;;;;5105510;28;20475;-92
2022/04/03 11:25:01;;;;;;;24.77;6.43;;;;;;;;;;5104299;28;20031;-90
2022/04/03 11:27:28;;;;;;;18.42;6.00;;;;;;;;;;5109092;28;20028;-89
2022/04/03 11:29:55;;;;;;;18.35;6.10;;;;;;;;;;5105387;28;20050;-91
2022/04/03 11:32:22;;;;;;;16.60;4.70;;;;;;;;;;5107438;28;20118;-90
2022/04/03 11:34:58;;;;;;;23.63;5.88;;;;;;;;;;5107358;28;20058;-89
2022/04/03 11:37:25;;;;;;;15.00;5.78;;;;;;;;;;5098771;28;20042;-89
2022/04/03 11:39:57;;;;;;;25.48;8.23;;;;;;;;;;5101372;28;20036;-91
2022/04/03 11:42:24;;;;;;;26.52;9.13;;;;;;;;;;5112671;27;20095;-90
2022/04/03 11:44:59;;;;;;;22.48;7.07;;;;;;;;;;5102683;28;20020;-90
2022/04/03 11:47:26;;;;;;;16.73;5.70;;;;;;;;;;5105998;28;20036;-90
2022/04/03 11:50:07;;;;;;;19.50;5.15;;;;;;;;;;5110794;28;20032;-90
2022/04/03 11:52:35;;;;;;;21.33;6.53;;;;;;;;;;5110155;28;20482;-90
2022/04/03 11:55:20;;;;;;;19.80;6.28;;;;;;;;;;5105937;28;20109;-90
2022/04/03 11:57:47;;;;;;;19.25;5.68;;;;;;;;;;5100235;28;20031;-92
2022/04/03 12:00:15;;;;;;;20.30;6.10;;;;;;;;;;5113292;28;20076;-90
2022/04/03 12:02:43;;;;;;;18.98;6.25;;;;;;;;;;5105868;28;20502;-91
2022/04/03 12:05:14;;;;;;;20.25;6.30;;;;;;;;;;5110842;28;20036;-92
2022/04/03 12:07:49;;;;;;;20.63;6.45;;;;;;;;;;5102378;27;20394;-90
2022/04/03 12:10:33;;;;;;;23.50;7.40;;;;;;;;;;5112867;28;20130;-90
2022/04/03 12:12:59;;;;;;;20.10;7.00;;;;;;;;;;5104022;28;20031;-92
2022/04/03 12:15:30;;;;;;;28.35;7.50;;;;;;;;;;5109098;28;20398;-90
2022/04/03 12:17:57;;;;;;;24.73;6.80;;;;;;;;;;5102623;28;20028;-90
2022/04/03 12:20:24;;;;;;;23.70;6.72;;;;;;;;;;5106058;28;20035;-90
2022/04/03 12:22:52;;;;;;;28.35;7.22;;;;;;;;;;5105556;28;20036;-90
2022/04/03 12:25:19;;;;;;;27.67;8.07;;;;;;;;;;5099540;28;20036;-90
2022/04/03 12:27:45;;;;;;;23.20;8.73;;;;;;;;;;5101344;28;20032;-90
2022/04/03 12:30:25;;;;;;;31.63;8.60;;;;;;;;;;5104120;28;20032;-90
2022/04/03 12:32:52;;;;;;;20.52;7.78;;;;;;;;;;5101823;28;20044;-89
2022/04/03 12:35:44;;;;;;;30.02;7.72;;;;;;;;;;5110833;28;20043;-90
2022/04/03 12:38:12;;;;;;;29.48;8.65;;;;;;;;;;5112453;28;20391;-91
2022/04/03 12:40:46;;;;;;;25.17;7.95;;;;;;;;;;5104310;28;20032;-92
2022/04/03 12:43:13;;;;;;;20.48;7.13;;;;;;;;;;5113902;28;20039;-91
2022/04/03 12:45:42;;;;;;;21.40;6.55;;;;;;;;;;5111132;28;20089;-89
2022/04/03 12:48:09;;;;;;;28.40;7.47;;;;;;;;;;5113658;28;20118;-92
2022/04/03 12:50:42;;;;;;;19.15;7.03;;;;;;;;;;5099714;28;20040;-90
2022/04/03 12:53:18;;;;;;;25.98;8.85;;;;;;;;;;5110544;28;20035;-91
2022/04/03 12:55:51;;;;;;;24.05;9.50;;;;;;;;;;5106229;28;20027;-90
2022/04/03 12:58:33;;;;;;;24.58;9.45;;;;;;;;;;5096776;28;20039;-89
2022/04/03 13:01:07;;;;;;;42.30;16.45;;;;;;;;;;5092286;28;20478;-91
2022/04/03 13:03:34;;;;;;;35.22;13.98;;;;;;;;;;5096186;28;20032;-89
2022/04/03 13:06:22;;;;;;;35.17;13.38;;;;;;;;;;5093308;28;20035;-90
2022/04/03 13:08:58;;;;;;;36.55;13.05;;;;;;;;;;5081471;28;20093;-88
2022/04/03 13:19:01;;;;;;;40.53;18.20;;;;;;;;;;5087920;28;20051;-91
2022/04/03 13:21:42;;;;;;;36.08;17.90;;;;;;;;;;5070325;28;20048;-89
2022/04/03 13:24:10;;;;;;;48.13;19.25;;;;;;;;;;5089044;28;20028;-89
2022/04/03 13:26:40;;;;;;;44.28;16.60;;;;;;;;;;5071190;28;20063;-90
2022/04/03 13:29:08;;;;;;;42.35;14.38;;;;;;;;;;5066911;28;20501;-89
2022/04/03 13:31:59;;;;;;;37.70;13.65;;;;;;;;;;5062753;28;20029;-90
2022/04/03 13:34:35;;;;;;;39.90;13.32;;;;;;;;;;4980543;28;20046;-90
2022/04/03 13:37:04;;;;;;;41.65;12.35;;;;;;;;;;5070671;28;20040;-89
2022/04/03 13:39:33;;;;;;;27.17;9.98;;;;;;;;;;5071257;28;20109;-89
2022/04/03 13:42:03;;;;;;;39.80;10.38;;;;;;;;;;5061648;28;20024;-90
2022/04/03 13:45:56;;;;;;;32.22;9.00;;;;;;;;;;5070411;28;20055;-90
2022/04/03 13:47:31;;;;;;;36.65;10.20;;;;;;;;;;5064006;28;20056;-89
2022/04/03 13:49:57;;;;;;;48.20;13.07;;;;;;;;;;5066149;28;20530;-90
2022/04/03 13:52:42;;;;;;;41.72;17.23;;;;;;;;;;5061060;28;20437;-89
2022/04/03 13:55:09;;;;;;;49.38;18.65;;;;;;;;;;5056838;28;20071;-88
2022/04/03 13:57:45;;;;;;;46.60;17.13;;;;;;;;;;5060772;28;20050;-89
2022/04/03 14:00:13;;;;;;;36.95;14.38;;;;;;;;;;5068039;28;20032;-90
2022/04/03 14:02:46;;;;;;;45.17;15.25;;;;;;;;;;5065755;28;20047;-88
2022/04/03 14:05:13;;;;;;;43.25;16.02;;;;;;;;;;5065831;28;20037;-90
2022/04/03 14:07:40;;;;;;;37.78;16.00;;;;;;;;;;5070997;28;20470;-90
2022/04/03 14:10:06;;;;;;;43.55;17.42;;;;;;;;;;5078006;28;20430;-90
2022/04/03 14:12:33;;;;;;;44.70;17.27;;;;;;;;;;5070549;28;20036;-89
2022/04/03 14:14:59;;;;;;;55.05;19.58;;;;;;;;;;5077417;28;20380;-89
2022/04/03 14:17:29;;;;;;;46.50;19.58;;;;;;;;;;5070482;28;20024;-90
2022/04/03 14:19:56;;;;;;;52.72;22.17;;;;;;;;;;5070087;28;20066;-90
2022/04/03 14:22:23;;;;;;;55.15;22.48;;;;;;;;;;5070062;28;20445;-90
2022/04/03 14:24:50;;;;;;;52.38;24.23;;;;;;;;;;5074032;28;20497;-88
2022/04/03 14:27:16;;;;;;;59.42;26.33;;;;;;;;;;5067330;28;20043;-89
2022/04/03 14:29:57;;;;;;;66.13;28.58;;;;;;;;;;5069490;28;20036;-89
2022/04/03 14:32:24;;;;;;;71.07;30.10;;;;;;;;;;5068982;28;20389;-90
2022/04/03 14:34:51;;;;;;;71.18;29.92;;;;;;;;;;5063630;28;20062;-89
2022/04/03 14:37:18;;;;;;;78.75;32.22;;;;;;;;;;5074092;28;20430;-92
2022/04/03 14:39:45;;;;;;;78.25;32.65;;;;;;;;;;5073023;28;20033;-92
2022/04/03 14:42:11;;;;;;;83.75;33.35;;;;;;;;;;5075937;28;20502;-91
2022/04/03 14:44:49;;;;;;;100.50;34.47;;;;;;;;;;5061758;28;20135;-91
2022/04/03 14:47:16;;;;;;;75.00;29.92;;;;;;;;;;5063136;28;20040;-91
2022/04/03 14:49:46;;;;;;;75.53;29.08;;;;;;;;;;5068512;28;20585;-89
2022/04/03 14:52:12;;;;;;;64.20;26.58;;;;;;;;;;5067227;28;20458;-91
2022/04/03 14:54:41;;;;;;;69.35;25.50;;;;;;;;;;5076097;28;20039;-90
2022/04/03 14:57:10;;;;;;;62.90;25.42;;;;;;;;;;5066265;28;20029;-92
2022/04/03 15:00:04;;;;;;;57.63;22.77;;;;;;;;;;5078937;28;20028;-91
2022/04/03 15:02:31;;;;;;;54.28;24.33;;;;;;;;;;5072151;28;20032;-89
2022/04/03 15:05:00;;;;;;;61.63;26.50;;;;;;;;;;5075223;28;20479;-91
2022/04/03 15:07:30;;;;;;;57.90;25.98;;;;;;;;;;5064030;28;20028;-90
2022/04/03 15:10:07;;;;;;;58.58;24.38;;;;;;;;;;5073611;28;20028;-91
2022/04/03 15:12:36;;;;;;;62.30;24.38;;;;;;;;;;5068204;28;20032;-92
2022/04/03 15:15:03;;;;;;;63.33;26.02;;;;;;;;;;5073260;28;20032;-89
2022/04/03 15:17:39;;;;;;;66.63;28.15;;;;;;;;;;5063490;28;20170;-90
2022/04/03 15:20:07;;;;;;;141.35;59.95;;;;;;;;;;5069618;28;20105;-91
2022/04/03 15:22:35;;;;;;;151.07;65.90;;;;;;;;;;5071054;28;20122;-90
2022/04/03 15:25:04;;;;;;;164.63;71.35;;;;;;;;;;5089307;28;20035;-91
2022/04/03 15:27:30;;;;;;;102.20;43.17;;;;;;;;;;5074724;28;20032;-90
2022/04/03 15:30:27;;;;;;;73.78;33.30;;;;;;;;;;5074398;28;20426;-90
2022/04/03 15:33:06;;;;;;;76.72;31.85;;;;;;;;;;5004677;28;20093;-89
2022/04/03 15:35:33;;;;;;;82.85;36.65;;;;;;;;;;5089075;28;20605;-90
2022/04/03 15:38:32;;;;;;;91.60;36.53;;;;;;;;;;5057488;28;20055;-91
2022/04/03 15:41:05;;;;;;;83.40;33.35;;;;;;;;;;5035602;28;20398;-90
2022/04/03 15:43:31;;;;;;;66.57;29.73;;;;;;;;;;5071239;28;20047;-92
2022/04/03 15:46:00;;;;;;;73.93;32.55;;;;;;;;;;5073750;28;20028;-91
2022/04/03 15:48:27;;;;;;;69.85;31.80;;;;;;;;;;5076299;28;20387;-92
2022/04/03 15:50:54;;;;;;;72.38;29.50;;;;;;;;;;5060393;28;20047;-90
2022/04/03 15:53:21;;;;;;;71.90;29.17;;;;;;;;;;5063477;28;20040;-91
2022/04/03 15:55:49;;;;;;;59.90;28.73;;;;;;;;;;5068648;28;20032;-90
2022/04/03 15:58:15;;;;;;;79.15;32.47;;;;;;;;;;5072731;28;20028;-93
2022/04/03 16:00:42;;;;;;;71.53;31.00;;;;;;;;;;5068532;28;20035;-91
2022/04/03 16:03:09;;;;;;;70.50;33.08;;;;;;;;;;5068848;28;20115;-89
2022/04/03 16:05:41;;;;;;;71.03;30.58;;;;;;;;;;5068023;28;20041;-91
2022/04/03 16:08:08;;;;;;;53.00;20.95;;;;;;;;;;5094365;28;20101;-90